Time;durP1;ratioP1;P1;durP2;ratioP2;P2;SDS_P1;SDS_P2;PMS_P1;PMS_P2;Temp;Humidity;BMP_temperature;BMP_pressure;BME280_temperature;BME280_humidity;BME280_pressure;Samples;Min_cycle;Max_cycle;Signal;HPM_P1;HPM_P2
2022/05/10 00:02:12;;;;;;;12.43;6.07;;;;;;;-149.78;100.00;50152.66;5056544;28;20028;-74
2022/05/10 00:04:39;;;;;;;9.80;5.70;;;;;;;-149.78;100.00;50119.41;5074502;28;20115;-74
2022/05/10 00:07:05;;;;;;;12.07;5.93;;;;;;;-149.78;100.00;50123.34;5073271;28;20055;-74
2022/05/10 00:09:30;;;;;;;19.60;5.75;;;;;;;-149.78;100.00;50123.34;5056214;28;20036;-74
2022/05/10 00:11:58;;;;;;;15.50;6.88;;;;;;;-149.78;100.00;50133.09;5073327;28;20063;-74
2022/05/10 00:14:27;;;;;;;14.73;6.82;;;;;;;-149.78;100.00;50138.97;5073895;28;20036;-74
2022/05/10 00:16:53;;;;;;;16.02;6.50;;;;;;;-149.78;100.00;50107.69;5074040;28;20029;-74
2022/05/10 00:19:20;;;;;;;17.88;7.18;;;;;;;-149.78;100.00;50131.16;5072587;28;20067;-74
2022/05/10 00:21:47;;;;;;;15.63;6.97;;;;;;;-149.78;100.00;50138.97;5072697;28;20032;-73
2022/05/10 00:24:13;;;;;;;10.70;5.90;;;;;;;-149.78;100.00;50131.16;5072566;28;20041;-74
2022/05/10 00:26:40;;;;;;;11.63;6.07;;;;;;;-149.78;100.00;50137.03;5072457;28;20040;-73
2022/05/10 00:29:06;;;;;;;13.60;6.45;;;;;;;-149.78;100.00;50123.34;5072696;28;20119;-74
2022/05/10 00:31:32;;;;;;;11.60;6.47;;;;;;;-149.78;100.00;50115.50;5055230;28;20033;-74
2022/05/10 00:34:00;;;;;;;13.43;6.80;;;;;;;-149.78;100.00;50129.19;5073216;28;20033;-73
2022/05/10 00:36:27;;;;;;;13.07;6.10;;;;;;;-149.78;100.00;50162.44;5073330;28;20101;-73
2022/05/10 00:38:53;;;;;;;9.52;5.80;;;;;;;-149.78;100.00;50064.66;5073659;28;20416;-74
2022/05/10 00:41:39;;;;;;;15.40;6.57;;;;;;;-149.78;100.00;50123.34;5073869;28;20056;-74
2022/05/10 00:44:12;;;;;;;13.32;6.93;;;;;;;-149.78;100.00;50103.78;5072456;28;20484;-73
2022/05/10 00:46:44;;;;;;;10.63;5.97;;;;;;;-149.78;100.00;50123.34;5071658;28;20774;-73
2022/05/10 00:49:20;;;;;;;12.88;6.63;;;;;;;-149.78;100.00;50125.28;5071041;28;20094;-74
2022/05/10 00:51:53;;;;;;;14.10;6.47;;;;;;;-149.78;100.00;50158.53;5071874;28;20047;-73
2022/05/10 00:54:24;;;;;;;12.82;6.53;;;;;;;-149.78;100.00;50142.88;5071820;28;20025;-73
2022/05/10 00:57:05;;;;;;;11.63;6.37;;;;;;;-149.78;100.00;50125.28;5072275;28;20036;-73
2022/05/10 01:00:08;;;;;;;12.02;5.95;;;;;;;-149.78;100.00;50131.16;5072023;28;20277;-73
2022/05/10 01:02:45;;;;;;;;;;;;;;;-149.78;100.00;50164.41;5062316;28;20033;-74
2022/05/10 01:05:30;;;;;;;11.50;5.72;;;;;;;-149.78;100.00;50166.34;5072608;28;20257;-74
2022/05/10 01:08:19;;;;;;;11.07;5.60;;;;;;;-149.78;100.00;50115.50;5071368;28;20498;-74
2022/05/10 01:10:51;;;;;;;10.80;5.40;;;;;;;-149.78;100.00;50154.63;5071980;28;20205;-73
2022/05/10 01:13:39;;;;;;;10.98;5.47;;;;;;;-149.78;100.00;50123.34;5054797;28;20369;-73
2022/05/10 01:16:11;;;;;;;11.02;5.45;;;;;;;-149.78;100.00;50123.34;5072690;28;20468;-74
2022/05/10 01:18:38;;;;;;;11.15;6.00;;;;;;;-149.78;100.00;50111.59;5071161;28;20495;-73
2022/05/10 01:21:46;;;;;;;11.80;5.63;;;;;;;-149.78;100.00;50172.22;5071328;28;20384;-74
2022/05/10 01:24:53;;;;;;;9.93;5.15;;;;;;;-149.78;100.00;50138.97;5070705;28;20048;-73
2022/05/10 01:27:42;;;;;;;9.70;4.88;;;;;;;-149.78;100.00;50138.97;5072035;28;20102;-73
2022/05/10 01:30:19;;;;;;;12.75;4.68;;;;;;;-149.78;100.00;50115.50;5070900;28;20656;-73
2022/05/10 01:35:49;;;;;;;8.30;4.93;;;;;;;-149.78;100.00;50158.53;5070836;28;20052;-73
2022/05/10 01:38:29;;;;;;;11.77;4.85;;;;;;;-149.78;100.00;50119.41;5051799;28;20024;-73
2022/05/10 01:41:12;;;;;;;8.13;4.60;;;;;;;-149.78;100.00;50144.84;5058282;28;20027;-73
2022/05/10 01:43:47;;;;;;;9.40;4.10;;;;;;;-149.78;100.00;50152.66;5072056;28;20364;-73
2022/05/10 01:46:27;;;;;;;8.55;4.07;;;;;;;-149.78;100.00;50154.63;5070817;28;20032;-73
2022/05/10 01:49:01;;;;;;;8.38;3.95;;;;;;;-149.78;100.00;50131.16;5073629;28;20046;-73
2022/05/10 01:51:43;;;;;;;7.28;3.88;;;;;;;-149.78;100.00;50162.44;5091098;28;20028;-73
2022/05/10 01:54:34;;;;;;;11.48;4.60;;;;;;;-149.78;100.00;50162.44;5092351;28;20032;-73
2022/05/10 01:57:00;;;;;;;8.90;4.32;;;;;;;-149.78;100.00;50127.25;5052102;28;20546;-73
2022/05/10 01:59:26;;;;;;;11.30;4.97;;;;;;;-149.78;100.00;50144.84;5066406;28;20081;-73
2022/05/10 02:01:54;;;;;;;9.85;4.75;;;;;;;-149.78;100.00;50150.72;5074038;28;20036;-78
2022/05/10 02:04:28;;;;;;;7.25;4.70;;;;;;;-149.78;100.00;50142.88;5092402;28;20044;-73
2022/05/10 02:07:02;;;;;;;10.68;4.43;;;;;;;-149.78;100.00;50150.72;5090641;28;20036;-73
2022/05/10 02:09:48;;;;;;;9.32;5.07;;;;;;;-149.78;100.00;50150.72;5090652;28;20032;-74
2022/05/10 02:12:20;;;;;;;7.35;4.55;;;;;;;-149.78;100.00;50142.88;5070639;28;20098;-74
2022/05/10 02:14:57;;;;;;;8.18;4.15;;;;;;;-149.78;100.00;50164.41;5074735;28;20051;-74
2022/05/10 02:17:30;;;;;;;8.07;4.57;;;;;;;-149.78;100.00;50152.66;5090711;28;20043;-73
2022/05/10 02:20:05;;;;;;;8.48;4.57;;;;;;;-149.78;100.00;50138.97;5092009;28;20036;-73
2022/05/10 02:22:37;;;;;;;6.60;4.15;;;;;;;-149.78;100.00;50123.34;5091872;28;20036;-73
2022/05/10 02:25:13;;;;;;;7.18;4.25;;;;;;;-149.78;100.00;50146.81;5090891;28;20434;-74
2022/05/10 02:27:45;;;;;;;10.55;4.57;;;;;;;-149.78;100.00;50144.84;5091819;28;20032;-73
2022/05/10 02:30:18;;;;;;;8.07;4.43;;;;;;;-149.78;100.00;50144.84;5091908;28;20110;-74
2022/05/10 02:33:07;;;;;;;7.28;4.07;;;;;;;-149.78;100.00;50088.13;5091765;28;20028;-73
2022/05/10 02:35:55;;;;;;;7.53;4.40;;;;;;;-149.78;100.00;50162.44;5091858;28;20052;-74
2022/05/10 02:38:24;;;;;;;10.07;4.45;;;;;;;-149.78;100.00;50154.63;5073833;28;20035;-74
2022/05/10 02:40:52;;;;;;;8.73;4.38;;;;;;;-149.78;100.00;50142.88;5091751;28;20523;-73
2022/05/10 02:43:25;;;;;;;7.68;3.97;;;;;;;-149.78;100.00;50131.16;5089773;28;20137;-74
2022/05/10 02:45:51;;;;;;;10.43;4.70;;;;;;;-149.78;100.00;50150.72;5091026;28;20057;-74
2022/05/10 02:48:22;;;;;;;8.48;4.40;;;;;;;-149.78;100.00;50138.97;5091637;28;20114;-74
2022/05/10 02:50:48;;;;;;;7.70;4.38;;;;;;;-149.78;100.00;50131.16;5072359;28;20031;-74
2022/05/10 02:53:14;;;;;;;8.85;4.55;;;;;;;-149.78;100.00;50172.22;5057340;28;20028;-74
2022/05/10 02:55:50;;;;;;;8.40;4.90;;;;;;;-149.78;100.00;50162.44;5074067;28;20764;-73
2022/05/10 02:58:24;;;;;;;9.45;4.70;;;;;;;-149.78;100.00;50138.97;5075201;28;20036;-73
2022/05/10 03:00:53;;;;;;;9.05;5.15;;;;;;;-149.78;100.00;50166.34;5075702;28;20069;-74
2022/05/10 03:03:24;;;;;;;8.02;4.60;;;;;;;-149.78;100.00;50154.63;5075362;28;20468;-74
2022/05/10 03:05:53;;;;;;;7.85;4.50;;;;;;;-149.78;100.00;50187.88;5057873;28;20432;-74
2022/05/10 03:08:19;;;;;;;8.32;4.18;;;;;;;-149.78;100.00;50174.19;5075516;28;20157;-73
2022/05/10 03:10:44;;;;;;;8.82;4.10;;;;;;;-149.78;100.00;50138.97;5075020;28;20459;-74
2022/05/10 03:13:10;;;;;;;10.45;4.68;;;;;;;-149.78;100.00;50162.44;5057410;28;20063;-73
2022/05/10 03:15:35;;;;;;;8.52;4.45;;;;;;;-149.78;100.00;50166.34;5073848;28;20400;-73
2022/05/10 03:18:01;;;;;;;8.75;4.70;;;;;;;-149.78;100.00;50154.63;5057284;28;20082;-74
2022/05/10 03:20:27;;;;;;;8.65;4.30;;;;;;;-149.78;100.00;50176.13;5057082;28;20040;-73
2022/05/10 03:22:52;;;;;;;8.90;4.57;;;;;;;-149.78;100.00;50150.72;5073653;28;20036;-73
2022/05/10 03:25:18;;;;;;;8.00;4.10;;;;;;;-149.78;100.00;50162.44;5057213;28;20128;-73
2022/05/10 03:27:45;;;;;;;7.88;3.92;;;;;;;-149.78;100.00;50137.03;5074770;28;20036;-73
2022/05/10 03:30:12;;;;;;;8.00;4.35;;;;;;;-149.78;100.00;50123.34;5074851;28;20056;-73
2022/05/10 03:32:38;;;;;;;8.55;4.60;;;;;;;-149.78;100.00;50140.94;5073377;28;20078;-73
2022/05/10 03:35:04;;;;;;;7.93;4.63;;;;;;;-149.78;100.00;50185.91;5073129;28;20036;-74
2022/05/10 03:37:31;;;;;;;8.60;4.85;;;;;;;-149.78;100.00;50154.63;5055716;28;20398;-74
2022/05/10 03:39:57;;;;;;;10.40;4.70;;;;;;;-149.78;100.00;50178.09;5074227;28;20060;-73
2022/05/10 03:42:23;;;;;;;8.93;5.50;;;;;;;-149.78;100.00;50174.19;5074265;28;20044;-73
2022/05/10 03:44:50;;;;;;;11.80;5.03;;;;;;;-149.78;100.00;50146.81;5074351;28;20028;-73
2022/05/10 03:47:17;;;;;;;12.95;5.60;;;;;;;-149.78;100.00;50197.66;5073076;28;20032;-73
2022/05/10 03:49:45;;;;;;;8.77;5.28;;;;;;;-149.78;100.00;50178.09;5073089;28;20035;-73
2022/05/10 03:52:12;;;;;;;8.88;5.28;;;;;;;-149.78;100.00;50166.34;5074357;28;20387;-73
2022/05/10 03:54:39;;;;;;;10.57;5.38;;;;;;;-149.78;100.00;50189.81;5074332;28;20047;-73
2022/05/10 03:57:05;;;;;;;10.00;5.25;;;;;;;-149.78;100.00;50170.25;5074265;28;20033;-73
2022/05/10 03:59:31;;;;;;;9.65;5.10;;;;;;;-149.78;100.00;50170.25;5074249;28;20426;-72
2022/05/10 04:01:57;;;;;;;13.55;5.43;;;;;;;-149.78;100.00;50209.38;5073811;28;20490;-73
2022/05/10 04:04:23;;;;;;;13.15;5.72;;;;;;;-149.78;100.00;50189.81;5073498;28;20028;-73
2022/05/10 04:06:49;;;;;;;12.40;5.60;;;;;;;-149.78;100.00;50189.81;5073992;28;20365;-73
2022/05/10 04:09:16;;;;;;;8.63;5.75;;;;;;;-149.78;100.00;50154.63;5073841;28;20029;-73
2022/05/10 04:11:43;;;;;;;11.98;6.13;;;;;;;-149.78;100.00;50185.91;5073856;28;20103;-73
2022/05/10 04:14:09;;;;;;;11.25;6.07;;;;;;;-149.78;100.00;50158.53;5072782;28;20036;-73
2022/05/10 04:16:34;;;;;;;14.18;6.68;;;;;;;-149.78;100.00;50178.09;5072822;28;20039;-73
2022/05/10 04:19:00;;;;;;;11.30;6.63;;;;;;;-149.78;100.00;50168.31;5056117;28;20040;-74
2022/05/10 04:21:26;;;;;;;12.45;6.03;;;;;;;-149.78;100.00;50183.97;5072319;28;20036;-74
2022/05/10 04:23:52;;;;;;;11.40;6.28;;;;;;;-149.78;100.00;50160.50;5073722;28;20456;-74
2022/05/10 04:26:19;;;;;;;9.55;5.90;;;;;;;-149.78;100.00;50152.66;5072427;28;20038;-74
2022/05/10 04:28:45;;;;;;;11.35;6.22;;;;;;;-149.78;100.00;50166.34;5072466;28;20075;-74
2022/05/10 04:31:12;;;;;;;13.07;6.32;;;;;;;-149.78;100.00;50166.34;5073577;28;20036;-74
2022/05/10 04:33:38;;;;;;;11.48;6.22;;;;;;;-149.78;100.00;50131.16;5073301;28;20028;-74
2022/05/10 04:36:05;;;;;;;12.32;6.10;;;;;;;-149.78;100.00;50182.00;5073545;28;20041;-74
2022/05/10 04:38:30;;;;;;;10.68;5.72;;;;;;;-149.78;100.00;50154.63;5054624;28;20167;-73
2022/05/10 04:43:41;;;;;;;9.65;5.60;;;;;;;-149.78;100.00;50162.44;5071181;28;20139;-74
2022/05/10 04:46:07;;;;;;;10.90;5.85;;;;;;;-149.78;100.00;50162.44;5070117;28;20037;-74
2022/05/10 04:48:33;;;;;;;7.57;5.20;;;;;;;-149.78;100.00;50164.41;5064552;28;20035;-74
2022/05/10 04:51:00;;;;;;;10.23;5.00;;;;;;;-149.78;100.00;50172.22;5053397;28;20558;-74
2022/05/10 04:53:25;;;;;;;8.43;4.90;;;;;;;-149.78;100.00;50152.66;5072203;28;20085;-74
2022/05/10 04:55:51;;;;;;;10.45;4.80;;;;;;;-149.78;100.00;50162.44;5071546;28;20044;-74
2022/05/10 04:58:17;;;;;;;10.13;4.78;;;;;;;-149.78;100.00;50162.44;5073141;28;20040;-74
2022/05/10 05:00:43;;;;;;;8.98;4.70;;;;;;;-149.78;100.00;50174.19;5055240;28;20545;-74
2022/05/10 05:03:09;;;;;;;7.95;4.68;;;;;;;-149.78;100.00;50182.00;5072909;28;20037;-74
2022/05/10 05:05:34;;;;;;;7.57;4.03;;;;;;;-149.78;100.00;50185.91;5071372;28;20119;-74
2022/05/10 05:08:00;;;;;;;4.72;3.20;;;;;;;-149.78;100.00;50146.81;5071780;28;20377;-74
2022/05/10 05:10:25;;;;;;;6.20;2.72;;;;;;;-149.78;100.00;50148.75;5071112;28;20032;-74
2022/05/10 05:12:51;;;;;;;5.43;2.53;;;;;;;-149.78;100.00;50185.91;5071354;28;20426;-74
2022/05/10 05:15:17;;;;;;;2.67;2.10;;;;;;;-149.78;100.00;50183.97;5054202;28;20040;-75
2022/05/10 05:17:43;;;;;;;3.60;1.70;;;;;;;-149.78;100.00;50131.16;5049188;28;20485;-74
2022/05/10 05:20:10;;;;;;;5.63;1.70;;;;;;;-149.78;100.00;50176.13;5060769;28;20068;-74
2022/05/10 05:22:36;;;;;;;7.38;2.30;;;;;;;-149.78;100.00;50137.03;5071012;28;20101;-74
2022/05/10 05:25:03;;;;;;;2.75;1.77;;;;;;;-149.78;100.00;50182.00;5072634;28;20039;-74
2022/05/10 05:27:29;;;;;;;4.43;1.60;;;;;;;-149.78;100.00;50197.66;5072372;28;20037;-74
2022/05/10 05:29:55;;;;;;;4.75;1.38;;;;;;;-149.78;100.00;50144.84;5050857;28;20673;-74
2022/05/10 05:32:24;;;;;;;6.20;1.83;;;;;;;-149.78;100.00;50166.34;5052076;28;20040;-73
2022/05/10 05:34:49;;;;;;;4.40;1.20;;;;;;;-149.78;100.00;50189.81;5051702;28;20036;-74
2022/05/10 05:37:33;;;;;;;4.18;1.30;;;;;;;-149.78;100.00;50154.63;5050765;28;20025;-74
2022/05/10 05:40:06;;;;;;;6.88;1.83;;;;;;;-149.78;100.00;50166.34;5052200;28;20245;-74
2022/05/10 05:42:31;;;;;;;3.72;2.08;;;;;;;-149.78;100.00;50185.91;5057421;28;20147;-74
2022/05/10 05:45:12;;;;;;;4.70;1.50;;;;;;;-149.78;100.00;50152.66;5130075;27;20379;-74
2022/05/10 05:47:39;;;;;;;5.68;1.80;;;;;;;-149.78;100.00;50180.03;5130349;28;20031;-74
2022/05/10 05:50:05;;;;;;;4.20;1.52;;;;;;;-149.78;100.00;50150.72;5112048;28;20035;-73
2022/05/10 05:52:31;;;;;;;4.47;1.70;;;;;;;-149.78;100.00;50166.34;5111969;28;20031;-73
2022/05/10 05:54:57;;;;;;;6.15;1.90;;;;;;;-149.78;100.00;50164.41;5130195;28;20510;-73
2022/05/10 05:57:23;;;;;;;5.07;1.73;;;;;;;-149.78;100.00;50154.63;5112143;28;20114;-73
2022/05/10 05:59:55;;;;;;;5.78;1.73;;;;;;;-149.78;100.00;50189.81;5128630;28;20027;-72
2022/05/10 06:02:22;;;;;;;;;;;;;;;-149.78;100.00;50160.50;5113166;28;20036;-72
2022/05/10 06:04:48;;;;;;;5.70;1.17;;;;;;;-149.78;100.00;50182.00;5109259;28;19911;-73
2022/05/10 06:07:15;;;;;;;6.47;1.60;;;;;;;-149.78;100.00;50205.47;5123396;28;20501;-73
2022/05/10 06:09:43;;;;;;;5.10;1.70;;;;;;;-149.78;100.00;50185.91;5132310;27;20052;-74
2022/05/10 06:12:11;;;;;;;8.85;1.70;;;;;;;-149.78;100.00;50138.97;5132426;27;20027;-73
2022/05/10 06:14:38;;;;;;;7.07;1.55;;;;;;;-149.78;100.00;50182.00;5111728;28;20027;-73
2022/05/10 06:17:04;;;;;;;4.88;1.50;;;;;;;-149.78;100.00;50180.03;5135197;27;20092;-74
2022/05/10 06:19:30;;;;;;;4.55;1.63;;;;;;;-149.78;100.00;50172.22;5136222;27;20035;-75
2022/05/10 06:21:56;;;;;;;6.40;2.65;;;;;;;-149.78;100.00;50185.91;5140350;27;20378;-74
2022/05/10 06:24:23;;;;;;;7.32;1.98;;;;;;;-149.78;100.00;50182.00;5128201;27;20031;-73
2022/05/10 06:26:48;;;;;;;6.30;1.90;;;;;;;-149.78;100.00;50172.22;5139737;27;20088;-74
2022/05/10 06:29:14;;;;;;;8.18;2.22;;;;;;;-149.78;100.00;50207.44;5145176;27;20027;-75
2022/05/10 06:31:42;;;;;;;6.10;1.42;;;;;;;-149.78;100.00;50166.34;5114664;27;20466;-73
2022/05/10 06:34:07;;;;;;;11.40;2.15;;;;;;;-149.78;100.00;50146.81;5131646;27;20478;-73
2022/05/10 06:36:33;;;;;;;6.40;1.90;;;;;;;-149.78;100.00;50174.19;5149602;27;20136;-74
2022/05/10 06:38:58;;;;;;;5.60;1.70;;;;;;;-149.78;100.00;50162.44;5148682;27;20062;-73
2022/05/10 06:41:24;;;;;;;6.53;2.10;;;;;;;-149.78;100.00;50156.56;5138341;27;20035;-73
2022/05/10 06:43:50;;;;;;;7.72;1.83;;;;;;;-149.78;100.00;50168.31;5121063;27;20042;-76
2022/05/10 06:46:19;;;;;;;5.85;1.65;;;;;;;-149.78;100.00;50138.97;5113803;27;20038;-75
2022/05/10 06:48:45;;;;;;;7.80;2.25;;;;;;;-149.78;100.00;50133.09;5105625;27;20035;-74
2022/05/10 06:51:13;;;;;;;7.78;2.08;;;;;;;-149.78;100.00;50127.25;5121701;27;20061;-73
2022/05/10 06:53:39;;;;;;;8.13;1.80;;;;;;;-149.78;100.00;50135.06;5115668;27;20023;-74
2022/05/10 06:56:06;;;;;;;6.75;1.52;;;;;;;-149.78;100.00;50146.81;5126659;27;20551;-75
2022/05/10 06:58:31;;;;;;;7.30;1.90;;;;;;;-149.78;100.00;50078.34;5117353;27;20027;-75
2022/05/10 07:00:57;;;;;;;6.85;1.83;;;;;;;-149.78;100.00;50080.31;5128070;27;20031;-73
2022/05/10 07:03:28;;;;;;;8.90;2.00;;;;;;;-149.78;93.68;50070.53;5077194;27;20134;-72
2022/05/10 07:05:54;;;;;;;9.65;1.65;;;;;;;-149.78;73.92;50041.19;5108956;27;20066;-72
2022/05/10 07:08:21;;;;;;;4.93;1.80;;;;;;;-149.78;65.37;49982.53;5122151;27;20031;-72
2022/05/10 07:10:47;;;;;;;8.65;1.90;;;;;;;-149.78;57.28;49986.44;5122834;27;20034;-72
2022/05/10 07:13:18;;;;;;;7.43;1.88;;;;;;;-149.78;55.19;49955.16;5094068;27;20035;-72
2022/05/10 07:15:44;;;;;;;7.43;1.63;;;;;;;-149.78;56.10;49978.63;5094039;28;20498;-72
2022/05/10 07:18:10;;;;;;;10.30;1.90;;;;;;;-149.78;57.16;50009.91;5105928;27;20031;-72
2022/05/10 07:20:36;;;;;;;6.30;1.65;;;;;;;-149.78;61.77;49998.19;5130750;27;20061;-73
2022/05/10 07:23:02;;;;;;;7.20;1.80;;;;;;;-149.78;61.33;49978.63;5129631;27;20039;-75
2022/05/10 07:25:28;;;;;;;6.53;2.28;;;;;;;-149.78;57.48;49951.25;5132890;27;20042;-73
2022/05/10 07:27:55;;;;;;;7.22;1.83;;;;;;;-149.78;52.20;49939.50;5116281;27;20133;-72
2022/05/10 07:30:23;;;;;;;6.32;1.95;;;;;;;-149.78;47.39;49902.34;5112873;27;20454;-72
2022/05/10 07:32:50;;;;;;;5.95;1.90;;;;;;;-149.78;46.17;49849.56;5118296;27;20037;-72
2022/05/10 07:35:17;;;;;;;7.03;1.55;;;;;;;-149.78;44.72;49873.03;5103104;27;20118;-72
2022/05/10 07:37:43;;;;;;;5.78;1.90;;;;;;;-149.78;45.46;49916.03;5112873;28;20059;-72
2022/05/10 07:40:11;;;;;;;2.70;1.60;;;;;;;-149.78;48.12;49921.91;5094317;28;20054;-72
2022/05/10 07:42:38;;;;;;;7.07;1.75;;;;;;;-149.78;46.44;49912.13;5113250;28;20028;-72
2022/05/10 07:45:05;;;;;;;4.70;1.85;;;;;;;-149.78;50.51;49962.97;5113178;28;20074;-72
2022/05/10 07:47:31;;;;;;;9.13;1.98;;;;;;;-149.78;52.61;50002.09;5113815;28;20066;-71
2022/05/10 07:49:58;;;;;;;5.63;1.80;;;;;;;-149.78;56.41;50002.09;5127953;27;20122;-72
2022/05/10 07:52:24;;;;;;;8.68;1.85;;;;;;;-149.78;62.55;50039.25;5116496;27;20043;-71
2022/05/10 07:54:50;;;;;;;8.32;2.30;;;;;;;-149.78;63.80;49994.25;5099469;27;20092;-71
2022/05/10 07:57:15;;;;;;;8.27;2.47;;;;;;;-149.78;58.30;50064.66;5098381;27;20031;-72
2022/05/10 07:59:41;;;;;;;5.20;1.88;;;;;;;-149.78;58.86;50006.00;5116442;27;20034;-71
2022/05/10 08:02:07;;;;;;;9.65;2.20;;;;;;;-149.78;56.75;50037.28;5116347;27;20393;-72
2022/05/10 08:04:33;;;;;;;11.63;2.28;;;;;;;-149.78;55.54;49962.97;5134443;27;20092;-71
2022/05/10 08:06:59;;;;;;;7.40;1.80;;;;;;;-149.78;52.38;49951.25;5132792;27;20482;-72
2022/05/10 08:09:25;;;;;;;7.95;1.80;;;;;;;-149.78;46.89;49908.22;5134367;27;20030;-72
2022/05/10 08:11:51;;;;;;;6.65;2.35;;;;;;;-149.78;43.21;49878.88;5134304;27;20035;-71
2022/05/10 08:14:16;;;;;;;7.75;1.83;;;;;;;-149.78;40.35;49814.34;5115495;27;20027;-72
2022/05/10 08:16:42;;;;;;;4.68;1.48;;;;;;;-149.78;38.97;49826.09;5127751;27;20030;-72
2022/05/10 08:19:07;;;;;;;8.90;2.20;;;;;;;-149.78;38.54;49837.81;5104725;27;20743;-72
2022/05/10 08:21:33;;;;;;;8.82;1.60;;;;;;;-149.78;38.60;49841.72;5131050;27;20031;-71
2022/05/10 08:23:58;;;;;;;9.20;2.00;;;;;;;-149.78;39.32;49826.09;5105323;27;21323;-72
2022/05/10 08:26:24;;;;;;;6.68;1.98;;;;;;;-149.78;37.51;49830.00;5064448;28;20030;-73
2022/05/10 08:28:51;;;;;;;7.50;1.90;;;;;;;-149.78;39.39;49833.91;5100214;27;20363;-72
2022/05/10 08:31:20;;;;;;;9.20;1.60;;;;;;;-149.78;39.18;49798.72;5094265;28;20134;-73
2022/05/10 08:33:46;;;;;;;7.00;1.95;;;;;;;-149.78;37.69;49798.72;5120376;27;20031;-73
2022/05/10 08:36:12;;;;;;;4.20;1.88;;;;;;;-149.78;36.44;49794.81;5117787;27;20411;-72
2022/05/10 08:38:38;;;;;;;6.75;1.75;;;;;;;-149.78;35.43;49759.59;5101704;27;20108;-72
2022/05/10 08:41:20;;;;;;;6.78;1.80;;;;;;;-149.78;36.07;49835.88;5118875;27;20033;-73
2022/05/10 08:44:11;;;;;;;10.15;1.58;;;;;;;-149.78;38.64;49873.03;5121806;27;20043;-72
2022/05/10 08:46:41;;;;;;;25.33;3.45;;;;;;;-149.78;41.68;49931.69;5120669;27;20114;-72
2022/05/10 08:49:33;;;;;;;6.55;2.10;;;;;;;-149.78;44.42;49904.31;5119729;27;20499;-75
2022/05/10 08:51:59;;;;;;;6.43;1.80;;;;;;;-149.78;45.78;49961.03;5115017;27;20034;-73
2022/05/10 08:54:29;;;;;;;6.40;2.15;;;;;;;-149.78;49.50;49966.88;5096674;27;20027;-73
2022/05/10 08:56:58;;;;;;;8.13;2.08;;;;;;;-149.78;52.67;49974.72;5102673;28;20028;-74
2022/05/10 08:59:26;;;;;;;7.00;1.90;;;;;;;-149.78;53.20;49996.22;5119014;27;20323;-73
2022/05/10 09:01:53;;;;;;;9.65;1.92;;;;;;;-149.78;51.33;49970.78;5112371;28;20421;-75
2022/05/10 09:04:28;;;;;;;7.93;2.03;;;;;;;-149.78;54.92;49988.41;5093804;28;20051;-75
2022/05/10 09:07:12;;;;;;;13.68;2.63;;;;;;;-149.78;58.66;50043.16;5106047;27;20041;-74
2022/05/10 09:10:01;;;;;;;5.85;1.70;;;;;;;-149.78;66.27;50084.22;5133365;27;20126;-74
2022/05/10 09:12:31;;;;;;;6.88;1.80;;;;;;;-149.78;67.05;50060.75;5133248;27;20458;-73
2022/05/10 09:15:03;;;;;;;11.02;2.10;;;;;;;-149.78;64.64;50025.56;5133106;27;20508;-74
2022/05/10 09:17:31;;;;;;;4.57;1.33;;;;;;;-149.78;62.47;50041.19;5133336;27;20419;-74
2022/05/10 09:19:57;;;;;;;8.48;1.90;;;;;;;-149.78;56.78;49974.72;5124113;27;20391;-73
2022/05/10 09:22:41;;;;;;;5.55;1.83;;;;;;;-149.78;52.83;49970.78;5094811;28;20039;-74
2022/05/10 09:25:24;;;;;;;6.47;1.80;;;;;;;-149.78;52.32;49916.03;5123757;27;20035;-75
2022/05/10 09:27:51;;;;;;;7.72;1.85;;;;;;;-149.78;45.42;49929.72;5121183;27;20039;-75
2022/05/10 09:30:27;;;;;;;8.75;1.83;;;;;;;-149.78;43.05;49919.94;5077977;28;20378;-75
2022/05/10 09:36:06;;;;;;;;;;;;;;;-149.78;42.54;49896.50;5113108;28;20035;-76
2022/05/10 09:38:33;;;;;;;8.05;1.80;;;;;;;-149.78;41.71;49843.69;5112648;28;19969;-75
2022/05/10 09:40:59;;;;;;;7.47;1.60;;;;;;;-149.78;40.84;49867.16;5112530;28;20027;-75
2022/05/10 09:43:25;;;;;;;5.70;1.90;;;;;;;-149.78;38.97;49845.66;5093799;28;20104;-74
2022/05/10 09:46:18;;;;;;;10.00;1.83;;;;;;;-149.78;37.58;49873.03;5112756;28;20032;-75
2022/05/10 09:48:44;;;;;;;5.20;1.40;;;;;;;-149.78;38.75;49849.56;5116425;28;20055;-75
2022/05/10 09:51:31;;;;;;;4.80;1.83;;;;;;;-149.78;38.80;49898.44;5136247;27;20035;-75
2022/05/10 09:53:57;;;;;;;6.50;1.50;;;;;;;-149.78;40.94;49904.31;5134902;27;20117;-74
2022/05/10 09:56:30;;;;;;;5.45;1.70;;;;;;;-149.78;41.99;49918.00;5153648;27;20041;-74
2022/05/10 09:59:01;;;;;;;7.18;1.63;;;;;;;-149.78;41.34;49876.94;5153281;27;20043;-73
2022/05/10 10:01:41;;;;;;;5.15;1.60;;;;;;;-149.78;41.63;49882.81;5153323;27;20027;-74
2022/05/10 10:04:24;;;;;;;7.50;2.08;;;;;;;-149.78;41.25;49912.13;5154073;27;20054;-73
2022/05/10 10:07:17;;;;;;;9.13;1.80;;;;;;;-149.78;43.28;49947.34;5106720;28;20035;-74
2022/05/10 10:09:48;;;;;;;5.60;1.80;;;;;;;-149.78;44.97;49923.88;5114452;28;20031;-74
2022/05/10 10:12:35;;;;;;;5.82;1.50;;;;;;;-149.78;45.12;49962.97;5114994;28;20054;-74
2022/05/10 10:15:19;;;;;;;6.25;1.77;;;;;;;-149.78;43.08;49927.78;5120389;28;20020;-74
2022/05/10 10:18:08;;;;;;;4.88;1.60;;;;;;;-149.78;45.36;49886.72;5133036;28;20039;-73
2022/05/10 10:20:50;;;;;;;5.43;1.73;;;;;;;-149.78;43.90;49931.69;5132944;28;20114;-74
2022/05/10 10:23:31;;;;;;;7.93;1.90;;;;;;;-149.78;40.50;49900.41;5132779;28;20066;-73
2022/05/10 10:26:05;;;;;;;5.07;1.90;;;;;;;-149.78;40.54;49869.13;5114615;28;20104;-74
2022/05/10 10:28:38;;;;;;;5.22;1.60;;;;;;;-149.78;42.45;49900.41;5108398;28;20066;-75
2022/05/10 10:31:18;;;;;;;5.28;1.15;;;;;;;-149.78;43.79;49918.00;5095539;28;20036;-75
2022/05/10 10:34:03;;;;;;;4.18;1.40;;;;;;;-149.78;48.05;49978.63;5116112;28;20028;-75
2022/05/10 10:36:55;;;;;;;5.28;1.10;;;;;;;-149.78;50.87;49978.63;5097317;28;20039;-74
2022/05/10 10:39:29;;;;;;;6.07;1.20;;;;;;;-149.78;53.19;49982.53;5098085;28;20031;-76
2022/05/10 10:42:29;;;;;;;8.10;1.40;;;;;;;-149.78;53.20;49982.53;5116121;28;20032;-73
2022/05/10 10:44:57;;;;;;;7.57;1.75;;;;;;;-149.78;53.35;49978.63;5089823;27;20039;-72
2022/05/10 10:47:22;;;;;;;4.97;1.60;;;;;;;-149.78;54.93;49951.25;5122841;27;20121;-74
2022/05/10 10:50:09;;;;;;;7.68;1.67;;;;;;;-149.78;53.73;49951.25;5106406;27;20027;-73
2022/05/10 10:52:35;;;;;;;9.77;1.67;;;;;;;-149.78;54.11;49992.31;5132007;27;20500;-72
2022/05/10 10:55:04;;;;;;;4.72;1.30;;;;;;;-149.78;54.30;49992.31;5136486;27;20031;-72
2022/05/10 10:57:51;;;;;;;4.93;1.10;;;;;;;-149.78;52.99;49994.25;5136226;27;20075;-72
2022/05/10 11:00:20;;;;;;;5.97;1.38;;;;;;;-149.78;52.10;49996.22;5135920;27;20110;-73
2022/05/10 11:02:55;;;;;;;5.18;1.13;;;;;;;-149.78;53.42;49994.25;5109132;27;20027;-73
2022/05/10 11:05:42;;;;;;;6.05;1.25;;;;;;;-149.78;58.60;50023.59;5097426;28;20035;-72
2022/05/10 11:08:32;;;;;;;6.32;1.65;;;;;;;-149.78;62.73;50021.63;5115357;28;20450;-75
2022/05/10 11:11:25;;;;;;;6.80;1.50;;;;;;;-149.78;66.37;50025.56;5130475;27;20025;-72
2022/05/10 11:14:08;;;;;;;7.05;1.67;;;;;;;-149.78;69.14;50025.56;5118178;27;20537;-72
2022/05/10 11:16:36;;;;;;;7.38;1.60;;;;;;;-149.78;69.14;50017.72;5132517;27;20084;-72
2022/05/10 11:19:02;;;;;;;5.70;1.98;;;;;;;-149.78;67.93;50002.09;5117500;27;20038;-72
2022/05/10 11:21:46;;;;;;;10.30;2.58;;;;;;;-149.78;67.40;50011.88;5135901;27;20110;-72
2022/05/10 11:24:20;;;;;;;9.82;2.53;;;;;;;-149.78;63.83;50013.81;5136059;27;20027;-73
2022/05/10 11:27:22;;;;;;;8.10;2.47;;;;;;;-149.78;60.46;50025.56;5129404;27;20073;-73
2022/05/10 11:30:04;;;;;;;9.68;2.17;;;;;;;-149.78;60.98;50006.00;5132775;27;20053;-72
2022/05/10 11:32:45;;;;;;;7.13;2.72;;;;;;;-149.78;59.74;50013.81;5133752;27;20367;-73
2022/05/10 11:35:34;;;;;;;7.07;2.30;;;;;;;-149.78;57.34;49986.44;5145756;27;20023;-72
2022/05/10 11:38:10;;;;;;;9.65;2.33;;;;;;;-149.78;59.85;50017.72;5113936;27;20067;-73
2022/05/10 11:40:48;;;;;;;7.00;2.28;;;;;;;-149.78;57.85;49974.72;5128037;27;20042;-72